Time;durP1;ratioP1;P1;durP2;ratioP2;P2;SDS_P1;SDS_P2;PMS_P1;PMS_P2;Temp;Humidity;BMP_temperature;BMP_pressure;BME280_temperature;BME280_humidity;BME280_pressure;Samples;Min_cycle;Max_cycle;Signal;HPM_P1;HPM_P2
2022/01/15 00:00:36;;;;;;;14.38;9.50;;;;;;;17.78;51.62;103380.97;4886496;29;20396;-77
2022/01/15 00:03:07;;;;;;;14.73;8.88;;;;;;;17.77;51.74;103379.22;4868317;29;20125;-77
2022/01/15 00:05:33;;;;;;;14.60;9.25;;;;;;;17.77;51.74;103376.63;4864037;29;20524;-77
2022/01/15 00:08:01;;;;;;;12.68;9.43;;;;;;;17.77;51.58;103375.72;4864356;29;20041;-80
2022/01/15 00:10:28;;;;;;;14.73;9.77;;;;;;;17.77;51.90;103366.19;4849934;29;20540;-80
2022/01/15 00:12:54;;;;;;;13.05;9.13;;;;;;;17.76;51.46;103363.53;4866594;29;20397;-80
2022/01/15 00:15:28;;;;;;;14.98;9.07;;;;;;;17.76;51.73;103367.03;4867070;29;20049;-80
2022/01/15 00:18:00;;;;;;;14.18;9.35;;;;;;;17.76;51.62;103364.41;4868085;29;20056;-80
2022/01/15 00:20:27;;;;;;;15.65;9.07;;;;;;;17.77;51.83;103367.91;4869006;29;20047;-80
2022/01/15 00:22:54;;;;;;;13.45;9.25;;;;;;;17.76;51.38;103358.34;4885867;29;20441;-80
2022/01/15 00:25:21;;;;;;;15.20;9.38;;;;;;;17.75;51.49;103354.84;4889223;29;20065;-80
2022/01/15 00:27:47;;;;;;;13.40;8.60;;;;;;;17.74;51.61;103350.47;4872108;29;20105;-80
2022/01/15 00:30:13;;;;;;;13.55;9.25;;;;;;;17.75;51.61;103351.38;4871580;29;20385;-80
2022/01/15 00:32:39;;;;;;;12.30;8.63;;;;;;;17.74;51.59;103350.47;4855880;29;20037;-81
2022/01/15 00:35:07;;;;;;;13.30;8.90;;;;;;;17.74;51.57;103352.19;4871022;29;20152;-81
2022/01/15 00:37:33;;;;;;;15.88;9.15;;;;;;;17.74;51.56;103349.59;4855708;29;20044;-80
2022/01/15 00:40:01;;;;;;;12.93;8.55;;;;;;;17.74;51.67;103354.81;4871310;29;20051;-80
2022/01/15 00:42:28;;;;;;;11.77;8.13;;;;;;;17.73;51.53;103353.06;4871695;29;20036;-80
2022/01/15 00:44:55;;;;;;;12.98;8.60;;;;;;;17.74;51.44;103350.47;4876298;29;20062;-79
2022/01/15 00:47:21;;;;;;;12.38;8.77;;;;;;;17.72;51.67;103344.31;4854158;29;20118;-80
2022/01/15 00:49:47;;;;;;;12.45;8.23;;;;;;;17.73;51.38;103353.94;4867015;29;20033;-76
2022/01/15 00:52:12;;;;;;;13.18;8.15;;;;;;;17.72;51.46;103344.31;4867015;29;20033;-77
2022/01/15 00:54:38;;;;;;;13.82;8.15;;;;;;;17.72;51.38;103344.31;4851748;29;20041;-77
2022/01/15 00:57:03;;;;;;;12.85;7.72;;;;;;;17.72;51.47;103336.50;4852408;29;20047;-77
2022/01/15 00:59:29;;;;;;;12.05;8.15;;;;;;;17.70;51.40;103338.19;4867749;29;20048;-77
2022/01/15 01:01:54;;;;;;;10.95;7.38;;;;;;;17.71;51.26;103337.38;4852902;29;20123;-77
2022/01/15 01:04:20;;;;;;;14.82;8.52;;;;;;;17.71;51.50;103333.88;4852641;29;20516;-77
2022/01/15 01:06:45;;;;;;;12.82;7.32;;;;;;;17.71;51.30;103329.56;4869235;29;20053;-77
2022/01/15 01:09:10;;;;;;;10.18;7.20;;;;;;;17.71;51.20;103333.88;4854075;29;20078;-77
2022/01/15 01:11:55;;;;;;;10.13;7.38;;;;;;;17.69;51.30;103332.09;4855212;29;20101;-77
2022/01/15 01:25:13;;;;;;;9.65;7.13;;;;;;;17.67;51.07;103323.38;4875897;29;20045;-77
2022/01/15 01:27:46;;;;;;;10.68;6.70;;;;;;;17.67;51.09;103323.38;4854952;29;20044;-77
2022/01/15 01:30:33;;;;;;;11.13;6.68;;;;;;;17.68;51.42;103325.16;4870618;29;20041;-77
2022/01/15 01:35:41;;;;;;;9.40;6.32;;;;;;;17.67;51.42;103310.34;4856047;29;20041;-77
2022/01/15 01:38:27;;;;;;;8.90;6.20;;;;;;;17.67;51.25;103304.25;4856720;29;20045;-77
2022/01/15 01:40:53;;;;;;;8.02;6.50;;;;;;;17.67;51.04;103301.66;4845898;29;20037;-77
2022/01/15 01:45:52;;;;;;;9.23;6.03;;;;;;;17.66;51.23;103294.69;4855873;29;20041;-77
2022/01/15 01:48:18;;;;;;;9.43;6.85;;;;;;;17.66;51.03;103302.50;4873838;29;20181;-77
2022/01/15 01:50:43;;;;;;;8.85;6.18;;;;;;;17.64;51.01;103305.06;4853572;29;20132;-77
2022/01/15 01:53:09;;;;;;;7.70;5.53;;;;;;;17.65;51.00;103295.50;4857530;29;20049;-77
2022/01/15 01:55:35;;;;;;;8.60;6.10;;;;;;;17.64;51.03;103289.44;4873714;29;20037;-77
2022/01/15 01:58:01;;;;;;;9.75;5.75;;;;;;;17.64;51.32;103288.56;4873027;29;20045;-77
2022/01/15 02:00:30;;;;;;;8.55;6.00;;;;;;;17.64;51.03;103292.03;4889722;29;20039;-77
2022/01/15 02:02:57;;;;;;;7.55;5.50;;;;;;;17.64;51.04;103288.56;4890212;29;20036;-77
2022/01/15 02:05:24;;;;;;;10.60;5.80;;;;;;;17.64;50.96;103301.56;4873166;29;20051;-77
2022/01/15 02:07:50;;;;;;;8.32;5.72;;;;;;;17.64;51.14;103293.75;4870934;29;20056;-77
2022/01/15 02:10:18;;;;;;;8.85;5.72;;;;;;;17.63;50.90;103281.56;4868355;29;20041;-77
2022/01/15 02:12:45;;;;;;;7.85;5.80;;;;;;;17.61;50.91;103280.63;4865657;29;20033;-77
2022/01/15 02:15:12;;;;;;;8.40;5.40;;;;;;;17.61;51.07;103272.81;4866369;29;20177;-77
2022/01/15 02:17:39;;;;;;;6.88;5.35;;;;;;;17.62;50.96;103278.09;4870152;29;20074;-77
2022/01/15 02:25:44;;;;;;;7.45;5.30;;;;;;;17.62;50.99;103269.41;4890148;29;20036;-77
2022/01/15 02:28:10;;;;;;;8.07;5.60;;;;;;;17.61;50.88;103262.41;4857981;29;20045;-77
2022/01/15 02:30:36;;;;;;;6.63;5.25;;;;;;;17.60;50.99;103261.53;4871996;29;20047;-77
2022/01/15 02:33:02;;;;;;;8.20;5.68;;;;;;;17.60;50.90;103256.31;4872616;29;20044;-77
2022/01/15 02:35:28;;;;;;;8.68;5.10;;;;;;;17.60;50.75;103258.06;4888444;29;20048;-77
2022/01/15 02:37:53;;;;;;;8.50;4.97;;;;;;;17.60;51.12;103255.44;4888115;29;20069;-77
2022/01/15 02:40:19;;;;;;;6.93;4.68;;;;;;;17.59;50.78;103259.75;4870456;29;20033;-77
2022/01/15 02:42:44;;;;;;;7.05;5.05;;;;;;;17.59;50.94;103245.84;4855016;29;20041;-77
2022/01/15 02:45:11;;;;;;;6.60;5.03;;;;;;;17.59;50.84;103241.53;4839609;29;20041;-77
2022/01/15 02:50:21;;;;;;;;;;;;;;;17.59;50.58;103238.06;4873002;29;20089;-77
2022/01/15 02:52:47;;;;;;;6.18;4.90;;;;;;;17.59;50.91;103236.31;4866322;29;19923;-77
2022/01/15 02:55:12;;;;;;;6.90;4.90;;;;;;;17.58;50.78;103228.50;4849394;29;20064;-78
2022/01/15 02:57:38;;;;;;;5.82;4.85;;;;;;;17.57;50.67;103216.28;4850504;29;20037;-77
2022/01/15 03:00:04;;;;;;;5.32;4.20;;;;;;;17.58;50.68;103215.47;4836594;29;20037;-77
2022/01/15 03:02:32;;;;;;;6.30;4.72;;;;;;;17.57;50.81;103212.00;4869873;29;20072;-77
2022/01/15 03:04:57;;;;;;;6.28;4.70;;;;;;;17.57;50.46;103222.41;4855381;29;20059;-77
2022/01/15 03:07:23;;;;;;;5.97;4.53;;;;;;;17.56;50.89;103218.03;4856209;29;20053;-77
2022/01/15 03:09:48;;;;;;;7.35;4.70;;;;;;;17.56;50.73;103206.72;4872083;29;20049;-77
2022/01/15 03:12:13;;;;;;;6.13;4.85;;;;;;;17.56;50.76;103198.91;4839550;29;20129;-77
2022/01/15 03:14:39;;;;;;;5.75;4.47;;;;;;;17.57;50.71;103195.47;4854783;29;20101;-77
2022/01/15 03:17:04;;;;;;;6.22;4.68;;;;;;;17.57;50.62;103200.66;4870205;29;20044;-77
2022/01/15 03:19:30;;;;;;;6.18;4.57;;;;;;;17.56;50.47;103198.91;4870590;29;20480;-77
2022/01/15 03:21:56;;;;;;;6.97;4.38;;;;;;;17.56;50.71;103193.72;4869849;29;20033;-77
2022/01/15 03:24:21;;;;;;;5.10;4.05;;;;;;;17.56;50.75;103191.09;4854150;29;20057;-77
2022/01/15 03:26:46;;;;;;;5.85;4.18;;;;;;;17.54;51.04;103185.84;4869284;29;20037;-77
2022/01/15 03:29:12;;;;;;;6.32;4.32;;;;;;;17.54;50.63;103175.44;4838761;29;20041;-77
2022/01/15 03:31:37;;;;;;;6.00;4.30;;;;;;;17.54;50.67;103182.38;4869340;29;20229;-77
2022/01/15 03:34:02;;;;;;;5.80;4.20;;;;;;;17.54;50.66;103180.66;4851564;29;20039;-77
2022/01/15 03:36:28;;;;;;;4.90;4.32;;;;;;;17.53;50.41;103168.47;4833582;29;20181;-77
2022/01/15 03:38:53;;;;;;;4.50;4.05;;;;;;;17.53;50.70;103172.78;4850268;29;20052;-77
2022/01/15 03:41:18;;;;;;;7.25;4.20;;;;;;;17.53;50.63;103165.88;4833199;29;20063;-77
2022/01/15 03:43:44;;;;;;;5.50;4.10;;;;;;;17.52;50.80;103166.69;4865590;29;20484;-77
2022/01/15 03:46:09;;;;;;;5.43;4.05;;;;;;;17.51;50.68;103175.38;4883514;29;20029;-77
2022/01/15 03:48:34;;;;;;;7.32;4.47;;;;;;;17.52;50.68;103171.03;4866421;29;20536;-77
2022/01/15 03:51:00;;;;;;;5.28;4.18;;;;;;;17.51;50.52;103164.94;4851324;29;20037;-77
2022/01/15 03:53:25;;;;;;;5.28;3.92;;;;;;;17.51;50.76;103159.75;4851212;29;20041;-77
2022/01/15 03:55:51;;;;;;;4.50;3.83;;;;;;;17.51;50.62;103158.84;4851653;29;20065;-77
2022/01/15 03:58:18;;;;;;;4.43;3.80;;;;;;;17.50;50.52;103164.91;4851875;29;20048;-78
2022/01/15 04:00:43;;;;;;;4.75;3.60;;;;;;;17.50;50.49;103155.38;4852919;29;20465;-77
2022/01/15 04:03:08;;;;;;;4.85;3.65;;;;;;;17.50;50.79;103151.88;4868533;29;20034;-77
2022/01/15 04:05:34;;;;;;;4.75;4.22;;;;;;;17.49;50.44;103148.41;4855427;29;20057;-77
2022/01/15 04:08:00;;;;;;;4.47;3.85;;;;;;;17.49;50.46;103156.22;4843224;29;20146;-80
2022/01/15 04:10:26;;;;;;;5.15;3.55;;;;;;;17.49;50.60;103158.81;4859788;29;20444;-80
2022/01/15 04:12:51;;;;;;;4.95;3.63;;;;;;;17.49;50.53;103158.81;4872853;29;20047;-81
2022/01/15 04:15:18;;;;;;;4.93;3.90;;;;;;;17.48;50.45;103155.34;4859431;29;20484;-80
2022/01/15 04:17:46;;;;;;;5.97;4.05;;;;;;;17.48;50.08;103149.22;4868750;29;20029;-80
2022/01/15 04:20:13;;;;;;;5.20;4.38;;;;;;;17.48;50.12;103144.03;4877968;29;20041;-80
2022/01/15 04:22:39;;;;;;;4.32;3.60;;;;;;;17.47;50.42;103145.75;4878918;29;20045;-81
2022/01/15 04:25:05;;;;;;;4.05;3.65;;;;;;;17.47;50.47;103150.97;4891062;29;20033;-81
2022/01/15 04:27:30;;;;;;;7.00;3.90;;;;;;;17.46;50.37;103141.41;4857936;29;20136;-80
2022/01/15 04:29:56;;;;;;;5.28;3.45;;;;;;;17.47;50.75;103134.47;4871437;29;20068;-77
2022/01/15 04:32:22;;;;;;;4.70;3.53;;;;;;;17.46;50.56;103130.09;4856362;29;20041;-78
2022/01/15 04:34:48;;;;;;;4.30;3.50;;;;;;;17.46;50.57;103133.59;4886240;29;20052;-77
2022/01/15 04:37:20;;;;;;;5.18;3.50;;;;;;;17.45;50.34;103142.22;4854501;29;20045;-77
2022/01/15 04:39:46;;;;;;;4.70;3.63;;;;;;;17.45;50.58;103131.81;4870950;29;20037;-78
2022/01/15 04:42:12;;;;;;;5.43;3.92;;;;;;;17.45;50.66;103123.13;4854732;29;20041;-77
2022/01/15 04:44:38;;;;;;;4.43;3.40;;;;;;;17.45;50.38;103120.53;4839798;29;20049;-77
2022/01/15 04:47:04;;;;;;;5.20;3.75;;;;;;;17.44;50.38;103124.84;4854581;29;20041;-78
2022/01/15 04:49:30;;;;;;;5.28;3.95;;;;;;;17.45;50.34;103128.34;4856669;29;20037;-77
2022/01/15 04:51:56;;;;;;;4.65;3.70;;;;;;;17.44;50.01;103131.75;4855492;29;20045;-77
2022/01/15 04:54:21;;;;;;;5.18;4.05;;;;;;;17.44;50.43;103124.84;4856301;29;20088;-77
2022/01/15 04:56:47;;;;;;;4.10;3.60;;;;;;;17.43;50.31;103112.66;4856024;29;20140;-76
2022/01/15 04:59:12;;;;;;;3.97;3.30;;;;;;;17.44;50.23;103118.75;4868695;29;20048;-77
2022/01/15 05:01:38;;;;;;;4.78;3.80;;;;;;;17.42;50.24;103116.13;4886863;29;20048;-77
2022/01/15 05:04:04;;;;;;;4.63;3.75;;;;;;;17.43;50.17;103117.88;4855141;29;20041;-77
2022/01/15 05:06:29;;;;;;;4.97;3.90;;;;;;;17.42;50.40;103103.09;4870410;29;20083;-77
2022/01/15 05:09:03;;;;;;;5.07;3.83;;;;;;;17.41;50.06;103096.13;4857841;29;20044;-77
2022/01/15 05:11:44;;;;;;;4.25;3.40;;;;;;;17.42;50.43;103102.19;4891314;29;20093;-77
2022/01/15 05:14:11;;;;;;;4.10;3.40;;;;;;;17.42;50.36;103105.72;4861327;29;20041;-78
2022/01/15 05:16:36;;;;;;;4.20;3.30;;;;;;;17.41;50.13;103098.72;4874408;29;20033;-77
2022/01/15 05:19:02;;;;;;;4.82;3.95;;;;;;;17.40;50.20;103093.50;4857278;29;20037;-78
2022/01/15 05:21:28;;;;;;;4.32;3.58;;;;;;;17.40;50.27;103083.97;4890035;29;20037;-77
2022/01/15 05:23:53;;;;;;;4.57;3.60;;;;;;;17.40;50.57;103089.16;4873730;29;20047;-77
2022/01/15 05:26:18;;;;;;;4.13;3.45;;;;;;;17.39;50.20;103084.78;4874483;29;20052;-77
2022/01/15 05:28:44;;;;;;;4.32;3.50;;;;;;;17.39;49.99;103069.16;4874492;29;20041;-77
2022/01/15 05:31:09;;;;;;;4.13;3.60;;;;;;;17.38;50.14;103059.63;4842641;29;20088;-77
2022/01/15 05:33:34;;;;;;;4.80;3.38;;;;;;;17.39;50.15;103071.78;4842377;29;20137;-77
2022/01/15 05:36:00;;;;;;;3.55;2.92;;;;;;;17.39;50.17;103060.50;4873096;29;20049;-77
2022/01/15 05:38:26;;;;;;;5.85;3.15;;;;;;;17.38;50.01;103062.22;4873434;29;20036;-77
2022/01/15 05:40:51;;;;;;;3.40;3.10;;;;;;;17.37;50.24;103056.97;4869551;29;20571;-77
2022/01/15 05:43:17;;;;;;;4.25;3.38;;;;;;;17.37;50.23;103063.03;4869373;29;20068;-77
2022/01/15 05:45:42;;;;;;;3.58;2.97;;;;;;;17.37;50.30;103052.63;4852492;29;20044;-77
2022/01/15 05:48:08;;;;;;;4.63;3.72;;;;;;;17.36;50.26;103045.69;4884725;29;20094;-77
2022/01/15 05:50:33;;;;;;;3.70;3.08;;;;;;;17.36;50.17;103032.66;4854989;29;20047;-77
2022/01/15 05:52:58;;;;;;;3.85;2.90;;;;;;;17.37;49.96;103028.34;4840304;29;20404;-77
2022/01/15 05:55:27;;;;;;;3.40;3.00;;;;;;;17.36;50.11;103034.41;4856978;29;20041;-77
2022/01/15 05:57:52;;;;;;;3.83;3.15;;;;;;;17.35;50.27;103033.50;4871849;29;20076;-77
2022/01/15 06:00:18;;;;;;;3.60;3.00;;;;;;;17.35;50.00;103038.69;4841699;29;20132;-77
2022/01/15 06:02:43;;;;;;;3.45;2.92;;;;;;;17.35;49.96;103038.69;4859865;29;20048;-78
2022/01/15 06:05:09;;;;;;;4.88;3.33;;;;;;;17.35;50.03;103035.22;4874283;29;20076;-77
2022/01/15 06:07:35;;;;;;;3.63;2.90;;;;;;;17.33;50.02;103035.16;4875501;29;20048;-77
2022/01/15 06:10:00;;;;;;;3.78;3.28;;;;;;;17.34;50.03;103030.88;4858453;29;20053;-78
2022/01/15 06:12:30;;;;;;;3.60;2.72;;;;;;;17.34;50.01;103026.53;4875893;29;20068;-77
2022/01/15 06:14:56;;;;;;;3.10;2.58;;;;;;;17.33;50.21;103019.56;4847888;29;20059;-77
2022/01/15 06:17:22;;;;;;;4.18;3.22;;;;;;;17.33;49.90;103016.06;4892706;29;20037;-77
2022/01/15 06:19:47;;;;;;;3.17;2.83;;;;;;;17.33;50.20;103014.34;4874261;29;20132;-77
2022/01/15 06:22:12;;;;;;;3.63;2.90;;;;;;;17.33;49.94;103014.34;4856032;29;20040;-77
2022/01/15 06:24:38;;;;;;;3.55;2.90;;;;;;;17.32;50.05;103017.81;4841698;29;20041;-77
2022/01/15 06:27:03;;;;;;;3.33;3.00;;;;;;;17.31;49.90;103010.84;4853759;29;20041;-77
2022/01/15 06:29:29;;;;;;;4.00;3.00;;;;;;;17.32;49.88;103016.94;4853051;29;20056;-77
2022/01/15 06:31:54;;;;;;;3.95;2.90;;;;;;;17.32;50.10;103014.34;4887068;29;20041;-77
2022/01/15 06:34:20;;;;;;;3.85;2.90;;;;;;;17.32;49.89;103012.59;4868586;29;20498;-77
2022/01/15 06:36:46;;;;;;;3.00;2.47;;;;;;;17.32;50.06;103011.72;4867907;29;20071;-77
2022/01/15 06:39:12;;;;;;;3.97;2.97;;;;;;;17.30;50.02;103016.88;4853290;29;20029;-77
2022/01/15 06:41:37;;;;;;;3.30;2.95;;;;;;;17.30;49.82;103009.06;4853779;29;20381;-77
2022/01/15 06:44:02;;;;;;;3.75;3.00;;;;;;;17.30;50.22;103014.28;4852865;29;20041;-77
2022/01/15 06:46:28;;;;;;;3.15;2.70;;;;;;;17.30;50.03;103014.28;4852883;29;20045;-77
2022/01/15 06:48:53;;;;;;;2.97;2.67;;;;;;;17.29;49.89;103012.53;4851872;29;20053;-77
2022/01/15 06:51:18;;;;;;;3.92;2.67;;;;;;;17.28;49.97;103008.16;4851915;29;20061;-77
2022/01/15 06:53:44;;;;;;;3.13;2.60;;;;;;;17.30;50.13;103008.19;4874335;29;20045;-78
2022/01/15 06:56:09;;;;;;;2.95;2.47;;;;;;;17.28;49.62;103009.03;4872596;29;20491;-78
2022/01/15 06:58:35;;;;;;;3.83;3.00;;;;;;;17.28;50.07;103016.84;4860425;29;20040;-80
2022/01/15 07:01:00;;;;;;;2.83;2.50;;;;;;;17.28;49.91;103006.44;4865079;29;20041;-79
2022/01/15 07:03:25;;;;;;;3.60;2.88;;;;;;;17.30;49.95;103008.19;4889826;29;20093;-77
2022/01/15 07:05:51;;;;;;;2.70;2.15;;;;;;;17.28;50.05;103006.44;4855673;29;20100;-78
2022/01/15 07:08:16;;;;;;;2.35;2.13;;;;;;;17.28;50.13;103006.44;4855589;29;20049;-78
2022/01/15 07:10:43;;;;;;;2.65;2.33;;;;;;;17.28;49.99;103003.81;4840430;29;20080;-77
2022/01/15 07:13:09;;;;;;;2.60;2.33;;;;;;;17.31;50.08;103007.34;4855157;29;20041;-79
2022/01/15 07:15:34;;;;;;;2.78;2.38;;;;;;;17.30;50.07;103009.06;4855517;29;20097;-79
2022/01/15 07:18:00;;;;;;;3.13;2.50;;;;;;;17.28;49.90;102996.00;4855814;29;20085;-78
2022/01/15 07:20:27;;;;;;;2.20;2.00;;;;;;;17.29;50.06;102996.91;4886804;29;20076;-79
2022/01/15 07:22:53;;;;;;;2.92;2.45;;;;;;;17.26;50.02;102996.81;4855313;29;20044;-80
2022/01/15 07:25:19;;;;;;;4.43;2.90;;;;;;;17.31;50.03;103000.44;4885638;29;20116;-78
2022/01/15 07:27:45;;;;;;;4.15;2.80;;;;;;;17.35;49.71;103001.38;4871109;29;20033;-78
2022/01/15 07:30:12;;;;;;;5.53;2.95;;;;;;;17.37;49.83;102997.97;4868730;29;20089;-76
2022/01/15 07:32:40;;;;;;;5.57;3.40;;;;;;;17.39;49.88;103000.63;4887222;29;20097;-76
2022/01/15 07:35:06;;;;;;;6.18;3.13;;;;;;;17.41;50.12;102997.22;4857863;29;20408;-76
2022/01/15 07:37:32;;;;;;;3.47;3.13;;;;;;;17.42;50.35;102996.38;4872565;29;20052;-76
2022/01/15 07:39:59;;;;;;;7.10;2.95;;;;;;;17.44;50.16;102996.41;4872580;29;20041;-76
2022/01/15 07:42:24;;;;;;;3.47;2.83;;;;;;;17.45;50.45;102991.25;4855497;29;20036;-77
2022/01/15 07:44:50;;;;;;;4.05;2.90;;;;;;;17.46;50.40;102998.22;4868996;29;20036;-77
2022/01/15 07:47:15;;;;;;;2.92;2.63;;;;;;;17.46;50.34;102997.31;4837560;29;20490;-76
2022/01/15 07:49:40;;;;;;;3.50;2.70;;;;;;;17.48;50.29;102995.66;4837650;29;20037;-76
2022/01/15 07:52:06;;;;;;;3.13;2.47;;;;;;;17.47;50.23;102994.78;4885018;29;20045;-77
2022/01/15 07:54:32;;;;;;;3.50;2.45;;;;;;;17.48;50.08;103001.75;4868559;29;20066;-77
2022/01/15 07:56:58;;;;;;;3.40;2.58;;;;;;;17.48;50.64;102998.25;4853295;29;20049;-76
2022/01/15 07:59:28;;;;;;;2.72;2.38;;;;;;;17.49;50.32;103005.25;4884697;29;20037;-76
2022/01/15 08:01:54;;;;;;;3.47;2.05;;;;;;;17.49;50.45;102989.63;4851651;29;20025;-78
2022/01/15 08:04:19;;;;;;;2.80;2.13;;;;;;;17.50;50.46;102988.75;4851514;29;20048;-76
2022/01/15 08:06:44;;;;;;;2.83;2.17;;;;;;;17.50;50.44;102993.97;4851021;29;20573;-77
2022/01/15 08:09:10;;;;;;;4.40;2.40;;;;;;;17.51;50.58;103002.66;4867690;29;20033;-75
2022/01/15 08:11:35;;;;;;;3.33;2.25;;;;;;;17.51;50.54;103005.25;4834657;29;20037;-76
2022/01/15 08:14:01;;;;;;;2.90;2.03;;;;;;;17.52;50.73;103002.69;4866067;29;20077;-76
2022/01/15 08:16:26;;;;;;;2.72;1.98;;;;;;;17.52;50.52;103002.69;4865099;29;20033;-76
2022/01/15 08:18:52;;;;;;;1.88;1.67;;;;;;;17.52;50.48;103013.09;4881461;29;20044;-76
2022/01/15 08:21:17;;;;;;;2.10;1.77;;;;;;;17.53;50.56;103003.56;4881460;29;20045;-76
2022/01/15 08:23:44;;;;;;;2.70;1.80;;;;;;;17.52;50.59;102994.88;4865506;29;20048;-77
2022/01/15 08:26:10;;;;;;;2.10;1.90;;;;;;;17.53;50.55;102993.16;4870344;29;20037;-76
2022/01/15 08:28:37;;;;;;;2.17;1.67;;;;;;;17.53;50.58;102991.47;4885640;29;20044;-76
2022/01/15 08:31:04;;;;;;;2.00;1.80;;;;;;;17.53;50.50;103001.88;4883983;29;20040;-77
2022/01/15 08:33:30;;;;;;;3.42;1.90;;;;;;;17.54;50.83;102995.81;4883777;29;20093;-78
2022/01/15 08:35:55;;;;;;;1.92;1.63;;;;;;;17.59;50.59;102994.19;4866959;29;20062;-75
2022/01/15 08:38:21;;;;;;;2.85;2.00;;;;;;;17.59;50.55;102986.38;4850443;29;20131;-75
2022/01/15 08:40:46;;;;;;;3.15;2.15;;;;;;;17.63;50.29;102996.03;4865217;29;20115;-75
2022/01/15 08:43:13;;;;;;;3.60;1.70;;;;;;;17.61;50.50;102989.03;4849654;29;20044;-77
2022/01/15 08:45:39;;;;;;;2.45;1.95;;;;;;;17.59;50.53;102988.09;4869022;29;20044;-76
2022/01/15 08:48:05;;;;;;;2.10;1.70;;;;;;;17.57;50.75;102981.97;4868753;29;20041;-75
2022/01/15 08:50:32;;;;;;;2.20;1.88;;;;;;;17.56;50.73;102982.84;4853612;29;20044;-76
2022/01/15 08:52:57;;;;;;;5.15;2.58;;;;;;;17.57;50.46;102979.38;4853547;29;20045;-76
2022/01/15 08:55:28;;;;;;;29.10;7.30;;;;;;;17.60;51.16;102972.53;4869026;29;20506;-76
2022/01/15 08:57:54;;;;;;;31.75;8.63;;;;;;;17.63;51.76;102972.59;4868978;29;20048;-76
2022/01/15 09:00:20;;;;;;;31.27;9.40;;;;;;;17.66;51.33;102971.81;4885252;29;20033;-77
2022/01/15 09:02:46;;;;;;;28.80;7.75;;;;;;;17.68;51.19;102977.91;4868740;29;20060;-77
2022/01/15 09:05:12;;;;;;;24.27;7.00;;;;;;;17.69;51.13;102966.66;4884604;29;20040;-77
2022/01/15 09:07:37;;;;;;;16.20;5.72;;;;;;;17.68;51.18;102976.22;4868186;29;20412;-77
2022/01/15 09:10:03;;;;;;;16.90;6.10;;;;;;;17.71;51.15;102982.34;4852868;29;20089;-76
2022/01/15 09:12:28;;;;;;;15.00;5.60;;;;;;;17.73;51.14;102983.25;4867172;29;20041;-77
2022/01/15 09:14:59;;;;;;;17.40;5.32;;;;;;;17.72;51.15;102982.34;4852182;29;20373;-76
2022/01/15 09:17:26;;;;;;;13.70;5.32;;;;;;;17.72;51.11;102987.56;4868101;29;20043;-75
2022/01/15 09:19:51;;;;;;;10.50;5.20;;;;;;;17.71;51.00;102985.81;4872592;29;20037;-76
2022/01/15 09:22:16;;;;;;;13.35;5.30;;;;;;;17.69;51.05;102983.16;4869671;29;20041;-76
2022/01/15 09:24:45;;;;;;;14.20;5.25;;;;;;;17.70;50.97;102978.81;4852461;29;20071;-75
2022/01/15 09:30:13;;;;;;;13.45;4.97;;;;;;;17.71;50.67;102983.22;4884129;29;20040;-76
2022/01/15 09:32:40;;;;;;;;;;;;;;;17.71;50.84;102977.13;4841538;29;20097;-75
2022/01/15 09:35:06;;;;;;;16.33;4.90;;;;;;;17.71;50.88;102971.91;4883818;29;19919;-75
2022/01/15 09:37:31;;;;;;;7.20;4.18;;;;;;;17.72;51.11;102971.94;4866916;29;20068;-76
2022/01/15 09:39:58;;;;;;;10.48;4.65;;;;;;;17.72;51.12;102968.47;4867189;29;20222;-76
2022/01/15 09:42:24;;;;;;;10.80;5.00;;;;;;;17.73;50.89;102970.22;4883785;29;20040;-75
2022/01/15 09:44:49;;;;;;;11.90;5.20;;;;;;;17.73;50.92;102965.91;4883280;29;20045;-76
2022/01/15 09:47:16;;;;;;;11.20;4.78;;;;;;;17.74;51.04;102964.16;4883385;29;20120;-75
2022/01/15 09:49:45;;;;;;;11.20;4.63;;;;;;;17.73;50.99;102954.63;4868107;29;20112;-75
2022/01/15 09:52:12;;;;;;;8.00;4.75;;;;;;;17.73;50.79;102939.00;4884605;29;20029;-75
2022/01/15 09:54:39;;;;;;;7.88;4.88;;;;;;;17.75;50.69;102945.13;4882698;29;20037;-76
2022/01/15 09:57:04;;;;;;;9.88;4.75;;;;;;;17.75;50.88;102947.72;4884833;29;20048;-79
2022/01/15 09:59:30;;;;;;;8.77;4.70;;;;;;;17.76;50.75;102950.34;4884827;29;20037;-75
2022/01/15 10:01:57;;;;;;;12.38;4.97;;;;;;;17.76;50.71;102942.53;4836068;29;20507;-74
2022/01/15 10:04:23;;;;;;;9.63;5.25;;;;;;;17.77;50.66;102938.19;4836759;29;20049;-75
2022/01/15 10:07:09;;;;;;;7.93;4.38;;;;;;;17.77;50.80;102939.09;4849699;29;20488;-74
2022/01/15 10:09:36;;;;;;;10.00;5.20;;;;;;;17.78;50.70;102942.56;4866067;29;20105;-74
2022/01/15 10:12:01;;;;;;;8.05;5.10;;;;;;;17.78;50.87;102948.66;4868062;29;20039;-76
2022/01/15 10:14:29;;;;;;;7.88;5.00;;;;;;;17.78;50.85;102946.03;4857991;29;20248;-76
2022/01/15 10:16:56;;;;;;;10.80;4.97;;;;;;;17.77;50.77;102944.28;4872103;29;20127;-74
2022/01/15 10:19:29;;;;;;;8.98;5.38;;;;;;;17.79;50.85;102944.31;4867230;29;20404;-75
2022/01/15 10:22:12;;;;;;;10.40;5.20;;;;;;;17.79;50.66;102942.63;4883862;29;20511;-75
2022/01/15 10:24:42;;;;;;;7.72;4.93;;;;;;;17.81;50.96;102951.34;4866776;29;20408;-74
2022/01/15 10:27:24;;;;;;;10.35;5.18;;;;;;;17.80;50.74;102954.78;4883304;29;20484;-75
2022/01/15 10:29:55;;;;;;;6.40;4.97;;;;;;;17.81;50.80;102958.25;4867254;29;20037;-75
2022/01/15 10:32:23;;;;;;;7.93;4.65;;;;;;;17.80;50.77;102954.78;4867095;29;20395;-75
2022/01/15 10:34:48;;;;;;;10.55;4.78;;;;;;;17.81;50.84;102956.56;4865088;29;20076;-75
2022/01/15 10:37:21;;;;;;;7.70;5.03;;;;;;;17.81;50.75;102951.34;4850218;29;20041;-75
2022/01/15 10:39:59;;;;;;;8.50;4.93;;;;;;;17.82;50.72;102939.22;4865172;29;20040;-75
2022/01/15 10:42:26;;;;;;;8.43;4.90;;;;;;;17.81;50.72;102943.53;4881913;29;20101;-75
2022/01/15 10:44:57;;;;;;;6.78;4.38;;;;;;;17.81;50.74;102933.09;4882070;29;20040;-75
2022/01/15 10:47:26;;;;;;;8.23;4.93;;;;;;;17.82;50.75;102934.00;4881777;29;20076;-75
2022/01/15 10:49:52;;;;;;;6.30;4.70;;;;;;;17.83;50.67;102930.56;4864702;29;20404;-75
2022/01/15 10:52:26;;;;;;;8.68;4.70;;;;;;;17.84;50.46;102933.19;4881567;29;20120;-75
2022/01/15 10:55:11;;;;;;;9.80;4.90;;;;;;;17.84;50.43;102932.31;4882351;29;20036;-75
2022/01/15 10:57:45;;;;;;;7.85;4.68;;;;;;;17.83;50.58;102933.16;4868703;29;20041;-75
2022/01/15 11:00:12;;;;;;;7.57;4.88;;;;;;;17.84;50.67;102922.78;4884060;29;20033;-75
2022/01/15 11:02:53;;;;;;;6.47;4.55;;;;;;;17.84;50.54;102922.78;4887543;29;20037;-75
2022/01/15 11:05:32;;;;;;;5.82;4.82;;;;;;;17.86;50.63;102920.22;4865572;29;20048;-75
2022/01/15 11:08:09;;;;;;;6.82;5.00;;;;;;;17.86;50.50;102913.28;4861231;29;20116;-75
2022/01/15 11:10:39;;;;;;;6.43;4.82;;;;;;;17.84;50.31;102907.16;4863024;29;20045;-75
2022/01/15 11:13:07;;;;;;;8.90;4.97;;;;;;;17.85;50.49;102905.41;4861740;29;20085;-75
2022/01/15 11:15:34;;;;;;;6.03;4.55;;;;;;;17.86;50.55;102912.41;4862307;29;20124;-75
2022/01/15 11:18:02;;;;;;;5.63;4.75;;;;;;;17.86;50.54;102904.59;4861631;29;20029;-75
2022/01/15 11:20:31;;;;;;;7.45;4.72;;;;;;;17.85;50.67;102897.59;4830372;29;20042;-75
2022/01/15 11:22:56;;;;;;;6.00;4.70;;;;;;;17.86;50.76;102891.56;4861403;29;20038;-75
2022/01/15 11:25:22;;;;;;;6.50;4.60;;;;;;;17.86;50.39;102895.03;4861041;29;20052;-75
2022/01/15 11:27:47;;;;;;;5.13;4.30;;;;;;;17.87;50.41;102885.50;4860994;29;20037;-75
2022/01/15 11:30:13;;;;;;;6.53;4.40;;;;;;;17.87;50.31;102881.16;4862504;29;20068;-77
2022/01/15 11:32:41;;;;;;;5.50;4.55;;;;;;;17.86;50.61;102871.59;4866686;29;20116;-77
2022/01/15 11:35:09;;;;;;;6.38;5.00;;;;;;;17.87;50.28;102875.97;4867195;29;20042;-77
2022/01/15 11:37:47;;;;;;;6.78;4.80;;;;;;;17.87;50.26;102870.75;4866026;29;20492;-77
2022/01/15 11:40:39;;;;;;;6.18;5.05;;;;;;;17.88;50.37;102876.84;4867483;29;20508;-77
2022/01/15 11:43:41;;;;;;;5.93;4.88;;;;;;;17.89;50.27;102879.47;4867254;29;20040;-76
2022/01/15 11:46:25;;;;;;;7.35;5.15;;;;;;;17.91;50.39;102873.44;4790617;30;20415;-77
2022/01/15 11:48:51;;;;;;;7.30;5.05;;;;;;;17.93;50.24;102871.75;4859951;29;20073;-76
2022/01/15 11:51:17;;;;;;;6.47;4.82;;;;;;;17.95;50.18;102864.84;4850121;29;20098;-78